Barton, New York
Current Conditions -  °F | °C
As of 2:53 PM on Monday 22 Dec 2014 (Local Time) from KELM Reporting Station
Overcast Overcast  
Wind Chill: 32°   Ceiling: 3100
Heat Index: 37°   Visibility: 10mi
Dew Point: 26°   Wind: 6mph
Humidity: 65%   Direction: 190°S
Pressure: 30.15"   Gusts: NA
Location:  42.04°N, 76.45°W
Report Text: KELM 221953Z 19005KT 10SM OVC031 03/M03 A3015 RMK AO2 SLP219 T00281033
Loading
Personal Weather Stations






























Interactive Weather Map New forecast layout! Learn more

10-Day Weather Forecast

Advertisements
Track Severe Weather on mobile